createdAt,value
2022-12-04T00:00:27.311Z,44.95
2022-12-04T00:03:30.614Z,48.83
2022-12-04T00:06:36.607Z,50.65
2022-12-04T00:09:40.094Z,54.50
2022-12-04T00:12:42.893Z,47.35
2022-12-04T00:15:45.706Z,47.72
2022-12-04T00:18:48.969Z,49.45
2022-12-04T00:21:52.673Z,46.53
2022-12-04T00:24:55.179Z,50.70
2022-12-04T00:27:58.436Z,52.75
2022-12-04T00:31:04.600Z,48.63
2022-12-04T00:34:08.521Z,50.22
2022-12-04T00:37:11.940Z,47.75
2022-12-04T00:40:15.037Z,48.10
2022-12-04T00:43:17.871Z,52.20
2022-12-04T00:46:22.346Z,54.13
2022-12-04T00:49:24.926Z,50.78
2022-12-04T00:52:28.436Z,52.30
2022-12-04T00:55:31.724Z,54.03
2022-12-04T00:58:36.106Z,44.35
2022-12-04T01:01:40.727Z,50.00
2022-12-04T01:04:44.522Z,50.67
2022-12-04T01:07:47.212Z,51.20
2022-12-04T01:10:51.047Z,48.10
2022-12-04T01:13:54.015Z,48.15
2022-12-04T01:16:57.632Z,45.25
2022-12-04T01:20:01.792Z,44.45
2022-12-04T01:23:05.111Z,42.75
2022-12-04T01:26:07.993Z,47.17
2022-12-04T01:29:15.562Z,38.30
2022-12-04T01:32:18.268Z,50.75
2022-12-04T01:35:21.496Z,48.22
2022-12-04T01:38:25.303Z,44.85
2022-12-04T01:41:32.016Z,45.03
2022-12-04T01:44:34.835Z,47.40
2022-12-04T01:47:37.794Z,53.78
2022-12-04T01:50:42.355Z,45.05
2022-12-04T01:53:56.173Z,52.13
2022-12-04T01:57:21.395Z,55.23
2022-12-04T02:00:24.933Z,52.55
2022-12-04T02:03:30.249Z,55.05
2022-12-04T02:06:33.591Z,50.50
2022-12-04T02:09:39.476Z,50.25
2022-12-04T02:12:51.345Z,45.57
2022-12-04T02:15:58.973Z,46.20
2022-12-04T02:19:35.996Z,50.60
2022-12-04T02:22:53.963Z,42.38
2022-12-04T02:26:02.447Z,43.40
2022-12-04T02:29:17.559Z,47.90
2022-12-04T02:32:31.133Z,47.17
2022-12-04T02:35:45.946Z,50.70
2022-12-04T02:39:05.696Z,52.22
2022-12-04T02:42:12.970Z,52.20
2022-12-04T02:45:22.291Z,52.07
2022-12-04T02:48:28.495Z,51.42
2022-12-04T02:51:36.578Z,55.38
2022-12-04T02:54:45.966Z,52.25
2022-12-04T02:57:53.836Z,54.88
2022-12-04T03:00:59.704Z,54.03
2022-12-04T03:04:27.364Z,57.03
2022-12-04T03:07:58.771Z,57.40
2022-12-04T03:11:02.222Z,55.58
2022-12-04T03:14:20.993Z,55.45
2022-12-04T03:17:31.404Z,53.70
2022-12-04T03:20:39.180Z,57.50
2022-12-04T03:23:48.176Z,57.88
2022-12-04T03:27:03.823Z,52.58
2022-12-04T03:30:12.548Z,59.90
2022-12-04T03:33:19.714Z,56.27
2022-12-04T03:36:28.341Z,48.05
2022-12-04T03:39:38.473Z,53.58
2022-12-04T03:43:16.510Z,54.08
2022-12-04T03:46:41.165Z,44.47
2022-12-04T03:50:08.055Z,48.27
2022-12-04T03:53:49.656Z,45.92
2022-12-04T03:56:57.241Z,55.28
2022-12-04T04:00:13.062Z,44.88
2022-12-04T04:03:21.344Z,42.83
2022-12-04T04:06:40.389Z,44.90
2022-12-04T04:09:47.714Z,48.92
2022-12-04T04:13:21.175Z,53.53
2022-12-04T04:16:47.189Z,40.95
2022-12-04T04:20:15.408Z,48.47
2022-12-04T04:23:38.688Z,40.40
2022-12-04T04:26:50.395Z,51.88
2022-12-04T04:29:54.075Z,40.47
2022-12-04T04:33:16.822Z,44.35
2022-12-04T04:36:33.165Z,40.03
2022-12-04T04:39:38.601Z,39.55
2022-12-04T04:42:54.550Z,44.00
2022-12-04T04:46:04.652Z,43.40
2022-12-04T04:49:12.345Z,39.03
2022-12-04T04:52:18.589Z,43.30
2022-12-04T04:55:22.609Z,38.88
2022-12-04T04:58:25.777Z,39.80
2022-12-04T05:01:29.042Z,39.17
2022-12-04T05:04:31.819Z,35.87
2022-12-04T05:07:35.492Z,41.97
2022-12-04T05:10:38.646Z,44.10
2022-12-04T05:13:44.051Z,39.00
2022-12-04T05:16:47.761Z,42.50
2022-12-04T05:19:54.233Z,40.33
2022-12-04T05:22:57.388Z,39.75
2022-12-04T05:26:02.177Z,42.95
2022-12-04T05:29:04.848Z,39.25
2022-12-04T05:32:08.331Z,40.20
2022-12-04T05:35:11.906Z,40.60
2022-12-04T05:38:14.927Z,32.50
2022-12-04T05:41:18.263Z,39.40
2022-12-04T05:44:21.518Z,37.58
2022-12-04T05:47:25.543Z,34.87
2022-12-04T05:50:32.505Z,36.00
2022-12-04T05:53:45.167Z,42.83
2022-12-04T05:56:48.568Z,35.75
2022-12-04T05:59:51.579Z,43.08
2022-12-04T06:02:54.582Z,40.97
2022-12-04T06:05:58.376Z,41.35
2022-12-04T06:09:01.713Z,44.78
2022-12-04T06:12:07.514Z,45.03
2022-12-04T06:15:11.469Z,44.70
2022-12-04T06:18:14.162Z,47.77
2022-12-04T06:21:19.369Z,50.03
2022-12-04T06:24:28.305Z,52.45
2022-12-04T06:27:35.812Z,47.62
2022-12-04T06:30:42.457Z,52.03
2022-12-04T06:33:45.865Z,51.87
2022-12-04T06:36:49.372Z,48.75
2022-12-04T06:39:52.386Z,52.20
2022-12-04T06:42:56.305Z,54.63
2022-12-04T06:46:23.414Z,48.92
2022-12-04T06:49:34.409Z,55.10
2022-12-04T06:52:40.896Z,56.67
2022-12-04T06:55:55.119Z,53.20
2022-12-04T06:59:04.216Z,68.78
2022-12-04T07:02:09.291Z,68.60
2022-12-04T07:05:19.210Z,71.83
2022-12-04T07:08:22.864Z,59.60
2022-12-04T07:11:31.973Z,59.33
2022-12-04T07:14:46.159Z,64.32
2022-12-04T07:18:01.634Z,75.62
2022-12-04T07:21:07.441Z,58.83
2022-12-04T07:24:17.642Z,65.25
2022-12-04T07:27:24.396Z,61.22
2022-12-04T07:30:41.522Z,68.87
2022-12-04T07:33:51.233Z,62.03
2022-12-04T07:36:57.249Z,56.47
2022-12-04T07:40:04.244Z,61.15
2022-12-04T07:43:08.244Z,59.83
2022-12-04T07:46:16.476Z,57.97
2022-12-04T07:49:23.173Z,55.50
2022-12-04T07:52:29.811Z,55.80
2022-12-04T07:55:38.524Z,50.88
2022-12-04T07:58:44.409Z,56.60
2022-12-04T08:01:47.326Z,51.53
2022-12-04T08:04:51.685Z,50.97
2022-12-04T08:07:55.848Z,49.53
2022-12-04T08:11:01.495Z,55.75
2022-12-04T08:14:09.106Z,55.90
2022-12-04T08:17:15.367Z,54.05
2022-12-04T08:20:26.732Z,61.40
2022-12-04T08:23:36.229Z,52.20
2022-12-04T08:26:46.144Z,51.58
2022-12-04T08:29:56.832Z,52.53
2022-12-04T08:33:13.732Z,54.35
2022-12-04T08:36:26.447Z,52.28
2022-12-04T08:39:36.334Z,50.37
2022-12-04T08:42:49.655Z,49.65
2022-12-04T08:46:04.721Z,44.10
2022-12-04T08:49:22.402Z,53.10
2022-12-04T08:52:28.606Z,54.88
2022-12-04T08:55:35.088Z,51.33
2022-12-04T08:58:42.792Z,54.47
2022-12-04T09:01:51.453Z,55.15
2022-12-04T09:05:04.259Z,56.03
2022-12-04T09:08:11.313Z,56.10
2022-12-04T09:11:23.348Z,51.83
2022-12-04T09:14:36.388Z,41.42
2022-12-04T09:17:47.792Z,54.80
2022-12-04T09:21:02.315Z,48.25
2022-12-04T09:24:07.092Z,50.80
2022-12-04T09:27:18.141Z,52.00
2022-12-04T09:30:36.284Z,54.97
2022-12-04T09:33:42.840Z,53.38
2022-12-04T09:36:48.533Z,49.78
2022-12-04T09:39:56.456Z,48.00
2022-12-04T09:43:07.292Z,48.23
2022-12-04T09:46:19.259Z,46.28
2022-12-04T09:49:39.569Z,42.22
2022-12-04T09:53:04.619Z,41.37
2022-12-04T09:56:20.761Z,45.50
2022-12-04T09:59:32.342Z,47.80
2022-12-04T10:02:43.514Z,43.72
2022-12-04T10:06:19.376Z,43.47
2022-12-04T10:09:49.229Z,30.00
2022-12-04T10:13:49.238Z,36.57
2022-12-04T10:17:12.846Z,38.05
2022-12-04T10:20:49.139Z,36.28
2022-12-04T10:24:23.601Z,35.22
2022-12-04T10:27:51.281Z,33.93
2022-12-04T10:31:17.270Z,35.23
2022-12-04T10:34:28.703Z,31.60
2022-12-04T10:37:46.442Z,30.37
2022-12-04T10:41:14.574Z,42.33
2022-12-04T10:44:27.706Z,31.20
2022-12-04T10:47:44.573Z,33.43
2022-12-04T10:51:00.389Z,28.92
2022-12-04T10:54:32.877Z,34.53
2022-12-04T10:57:42.195Z,29.87
2022-12-04T11:00:58.298Z,29.67
2022-12-04T11:04:19.570Z,28.97
2022-12-04T11:07:29.296Z,33.15
2022-12-04T11:10:40.738Z,28.92
2022-12-04T11:13:48.598Z,24.65
2022-12-04T11:17:05.651Z,27.13
2022-12-04T11:20:18.341Z,27.73
2022-12-04T11:23:22.036Z,24.95
2022-12-04T11:26:39.181Z,23.30
2022-12-04T11:29:48.243Z,29.73
2022-12-04T11:32:56.324Z,22.83
2022-12-04T11:36:06.399Z,27.20
2022-12-04T11:39:13.478Z,21.73
2022-12-04T11:42:23.339Z,27.33
2022-12-04T11:45:29.562Z,26.52
2022-12-04T11:48:45.201Z,30.30
2022-12-04T11:52:18.821Z,32.00
2022-12-04T11:55:38.210Z,29.63
2022-12-04T11:59:04.380Z,27.17
2022-12-04T12:02:39.948Z,28.62
2022-12-04T12:05:49.466Z,28.07
2022-12-04T12:09:20.292Z,25.90
2022-12-04T12:12:57.341Z,26.30
2022-12-04T12:16:17.242Z,23.73
2022-12-04T12:19:55.458Z,28.67
2022-12-04T12:23:10.213Z,27.67
2022-12-04T12:26:17.383Z,28.07
2022-12-04T12:29:49.111Z,22.30
2022-12-04T12:33:12.179Z,23.87
2022-12-04T12:36:21.757Z,30.23
2022-12-04T12:39:39.283Z,24.93
2022-12-04T12:42:58.690Z,26.87
2022-12-04T12:46:42.129Z,23.62
2022-12-04T12:49:59.312Z,25.37
2022-12-04T12:53:26.202Z,24.20
2022-12-04T12:56:49.864Z,26.10
2022-12-04T13:00:02.410Z,21.23
2022-12-04T13:03:28.242Z,29.67
2022-12-04T13:06:40.503Z,21.65
2022-12-04T13:10:17.244Z,26.27
2022-12-04T13:13:50.102Z,27.83
2022-12-04T13:17:01.194Z,31.87
2022-12-04T13:20:32.101Z,25.85
2022-12-04T13:24:31.287Z,22.25
2022-12-04T13:28:00.708Z,23.20
2022-12-04T13:31:29.472Z,21.40
2022-12-04T13:35:06.201Z,28.80
2022-12-04T13:38:35.134Z,25.17
2022-12-04T13:41:46.518Z,29.00
2022-12-04T13:45:08.969Z,25.02
2022-12-04T13:48:16.142Z,30.87
2022-12-04T13:51:44.223Z,28.20
2022-12-04T13:55:00.086Z,28.60
2022-12-04T13:58:13.208Z,31.25
2022-12-04T14:01:30.990Z,28.23
2022-12-04T14:04:47.230Z,28.37
2022-12-04T14:08:08.024Z,31.60
2022-12-04T14:11:16.910Z,30.05
2022-12-04T14:14:32.278Z,32.13
2022-12-04T14:17:40.497Z,29.73
2022-12-04T14:20:45.379Z,29.10
2022-12-04T14:23:52.338Z,32.43
2022-12-04T14:27:15.597Z,32.75
2022-12-04T14:30:22.157Z,30.60
2022-12-04T14:33:32.812Z,30.17
2022-12-04T14:41:00.316Z,28.37
2022-12-04T14:44:41.354Z,31.33
2022-12-04T14:48:02.701Z,31.65
2022-12-04T14:51:09.223Z,32.90
2022-12-04T14:54:29.276Z,31.77
2022-12-04T14:57:54.881Z,28.80
2022-12-04T15:01:36.417Z,30.17
2022-12-04T15:04:49.270Z,30.10
2022-12-04T15:08:06.385Z,32.67
2022-12-04T15:11:44.324Z,34.10
2022-12-04T15:14:52.536Z,39.03
2022-12-04T15:18:09.732Z,47.40
2022-12-04T15:21:16.201Z,36.25
2022-12-04T15:24:26.600Z,30.25
2022-12-04T15:27:33.080Z,33.37
2022-12-04T15:30:42.569Z,40.27
2022-12-04T15:33:50.176Z,39.08
2022-12-04T15:37:07.304Z,41.70
2022-12-04T15:40:21.431Z,41.50
2022-12-04T15:43:43.966Z,40.10
2022-12-04T15:46:58.391Z,39.20
2022-12-04T15:50:19.311Z,40.50
2022-12-04T15:53:32.250Z,40.72
2022-12-04T15:56:37.185Z,40.55
2022-12-04T15:59:59.130Z,47.03
2022-12-04T16:03:36.332Z,40.10
2022-12-04T16:06:48.726Z,42.22
2022-12-04T16:10:03.262Z,36.88
2022-12-04T16:13:30.239Z,44.75
2022-12-04T16:16:50.109Z,44.93
2022-12-04T16:20:02.846Z,42.43
2022-12-04T16:23:08.136Z,44.25
2022-12-04T16:26:17.266Z,51.17
2022-12-04T16:29:23.186Z,44.10
2022-12-04T16:32:34.427Z,39.03
2022-12-04T16:35:50.115Z,36.57
2022-12-04T16:38:56.160Z,39.92
2022-12-04T16:42:25.131Z,42.53
2022-12-04T16:45:33.528Z,43.40
2022-12-04T16:48:43.444Z,42.87
2022-12-04T16:51:52.440Z,41.93
2022-12-04T16:54:58.494Z,40.17
2022-12-04T16:58:08.166Z,41.63
2022-12-04T17:01:26.732Z,38.78
2022-12-04T17:04:37.205Z,41.27
2022-12-04T17:07:43.802Z,41.97
2022-12-04T17:10:50.132Z,39.08
2022-12-04T17:13:52.913Z,38.85
2022-12-04T17:17:07.259Z,40.63
2022-12-04T17:20:28.065Z,41.57
2022-12-04T17:23:32.652Z,43.40
2022-12-04T17:26:38.375Z,38.80
2022-12-04T17:29:50.722Z,43.45
2022-12-04T17:32:57.196Z,41.88
2022-12-04T17:36:15.246Z,43.60
2022-12-04T17:39:21.181Z,44.77
2022-12-04T17:42:25.334Z,45.10
2022-12-04T17:45:33.188Z,43.97
2022-12-04T17:48:38.602Z,53.15
2022-12-04T17:51:52.074Z,49.13
2022-12-04T17:55:05.331Z,44.77
2022-12-04T17:58:13.497Z,45.17
2022-12-04T18:01:20.559Z,43.47
2022-12-04T18:04:25.255Z,42.35
2022-12-04T18:07:33.227Z,43.57
2022-12-04T18:10:42.956Z,40.53
2022-12-04T18:13:51.189Z,41.15
2022-12-04T18:17:06.243Z,45.03
2022-12-04T18:20:13.764Z,45.97
2022-12-04T18:23:31.181Z,47.90
2022-12-04T18:26:45.205Z,45.07
2022-12-04T18:29:53.623Z,48.92
2022-12-04T18:33:06.091Z,45.90
2022-12-04T18:36:28.584Z,44.80
2022-12-04T18:39:37.644Z,44.57
2022-12-04T18:42:41.933Z,43.77
2022-12-04T18:46:04.173Z,42.22
2022-12-04T18:49:13.160Z,40.20
2022-12-04T18:52:16.653Z,42.20
2022-12-04T18:55:24.376Z,44.63
2022-12-04T18:58:29.610Z,40.87
2022-12-04T19:01:35.364Z,39.40
2022-12-04T19:04:48.115Z,41.97
2022-12-04T19:07:54.224Z,40.12
2022-12-04T19:11:16.060Z,37.87
2022-12-04T19:14:37.188Z,44.10
2022-12-04T19:17:44.162Z,40.30
2022-12-04T19:20:53.162Z,39.60
2022-12-04T19:24:00.349Z,40.50
2022-12-04T19:27:13.471Z,38.80
2022-12-04T19:30:19.166Z,39.23
2022-12-04T19:33:34.399Z,36.95
2022-12-04T19:36:48.149Z,44.70
2022-12-04T19:40:02.390Z,43.97
2022-12-04T19:43:06.725Z,40.10
2022-12-04T19:46:15.885Z,33.83
2022-12-04T19:49:31.255Z,38.42
2022-12-04T19:52:40.462Z,39.70
2022-12-04T19:55:51.315Z,44.75
2022-12-04T19:58:57.439Z,43.73
2022-12-04T20:02:00.646Z,40.73
2022-12-04T20:05:12.162Z,38.25
2022-12-04T20:08:28.182Z,39.45
2022-12-04T20:11:36.200Z,40.55
2022-12-04T20:14:45.602Z,40.67
2022-12-04T20:17:48.701Z,39.77
2022-12-04T20:20:57.126Z,42.85
2022-12-04T20:24:11.482Z,37.58
2022-12-04T20:27:17.301Z,35.88
2022-12-04T20:30:26.232Z,36.93
2022-12-04T20:33:37.185Z,41.77
2022-12-04T20:36:47.166Z,37.00
2022-12-04T20:39:53.639Z,38.83
2022-12-04T20:43:07.055Z,36.83
2022-12-04T20:46:29.216Z,37.07
2022-12-04T20:49:51.110Z,40.57
2022-12-04T20:53:11.222Z,42.17
2022-12-04T20:56:17.229Z,42.20
2022-12-04T20:59:26.080Z,35.38
2022-12-04T21:02:37.082Z,31.03
2022-12-04T21:05:42.151Z,22.93
2022-12-04T21:08:56.130Z,20.12
2022-12-04T21:12:24.366Z,12.55
2022-12-04T21:15:47.417Z,16.05
2022-12-04T21:18:52.129Z,10.97
2022-12-04T21:21:58.430Z,14.87
2022-12-04T21:25:15.113Z,11.27
2022-12-04T21:28:18.700Z,18.00
2022-12-04T21:31:22.271Z,18.65
2022-12-04T21:34:26.472Z,18.03
2022-12-04T21:37:31.156Z,22.20
2022-12-04T21:40:42.096Z,22.62
2022-12-04T21:43:47.177Z,15.32
2022-12-04T21:46:51.237Z,14.75
2022-12-04T21:49:56.676Z,13.40
2022-12-04T21:53:06.069Z,11.47
2022-12-04T21:56:12.421Z,9.63
2022-12-04T21:59:18.095Z,8.25
2022-12-04T22:02:25.346Z,8.05
2022-12-04T22:05:32.319Z,8.83
2022-12-04T22:08:38.343Z,9.10
2022-12-04T22:11:48.490Z,10.27
2022-12-04T22:14:53.259Z,14.18
2022-12-04T22:17:56.786Z,11.70
2022-12-04T22:21:04.333Z,9.70
2022-12-04T22:24:10.669Z,13.27
2022-12-04T22:27:16.153Z,19.25
2022-12-04T22:30:19.369Z,14.55
2022-12-04T22:33:23.293Z,27.37
2022-12-04T22:36:32.043Z,22.87
2022-12-04T22:39:35.105Z,25.10
2022-12-04T22:42:39.386Z,20.50
2022-12-04T22:45:42.652Z,13.23
2022-12-04T22:48:46.325Z,26.60
2022-12-04T22:51:49.312Z,18.53
2022-12-04T22:54:54.130Z,17.80
2022-12-04T22:57:57.128Z,10.57
2022-12-04T23:01:00.827Z,12.85
2022-12-04T23:04:03.831Z,18.27
2022-12-04T23:07:09.077Z,20.77
2022-12-04T23:10:13.110Z,19.80
2022-12-04T23:13:16.024Z,12.60
2022-12-04T23:16:20.789Z,10.73
2022-12-04T23:19:25.457Z,13.57
2022-12-04T23:22:28.548Z,20.43
2022-12-04T23:25:31.346Z,14.93
2022-12-04T23:28:34.170Z,12.40
2022-12-04T23:31:39.192Z,18.08
2022-12-04T23:34:41.839Z,15.45
2022-12-04T23:37:46.171Z,13.07
2022-12-04T23:40:48.850Z,20.00
2022-12-04T23:43:53.448Z,17.02
2022-12-04T23:46:56.389Z,11.35
2022-12-04T23:49:59.818Z,13.65
2022-12-04T23:53:03.207Z,14.33
2022-12-04T23:56:32.874Z,12.87
2022-12-04T23:59:36.279Z,12.23
